NCAR-RAP Real-Time Weather Data

Output produced by METARs form (21 May 2019  10:26 UTC)
found at http://weather.rap.ucar.edu/surface/
 
RJOY 211000Z 01010KT 9999 FEW030 22/08 Q1003
RJOY 210900Z 01012KT 9999 FEW030 24/08 Q1003
RJOY 210800Z 36006KT 320V060 9999 FEW030 SCT/// 25/07 Q1002
RJOY 210700Z 36008KT 320V040 9999 FEW030 BKN/// 25/08 Q1002
RJOY 210600Z 01005KT 310V100 9999 FEW030 BKN/// 25/08 Q1002
RJOY 210500Z 01007KT 270V070 9999 FEW030 BKN/// 24/10 Q1003
RJOY 210400Z VRB04KT 9999 FEW030 SCT040 BKN/// 23/12 Q1003
RJOY 210300Z 27007KT 240V310 9999 FEW020 SCT040 BKN/// 22/14 Q1003
RJOY 210200Z VRB03KT 9999 FEW020 SCT040 BKN/// 22/13 Q1004
RJOY 210100Z 01004KT 270V040 9999 FEW010 SCT030 21/14 Q1004
RJOY 210000Z 36007KT 330V030 9999 FEW010 SCT030 BKN130 20/14 Q1004
RJOY 202300Z 02003KT 300V090 9999 -SHRA FEW005 SCT015 BKN020 17/15 Q1004
RJOY 201000Z 09011KT 9999 VCSH FEW025 SCT060 BKN080 21/15 Q1005
RJOY 200900Z 09012KT 9999 -RA FEW025 SCT050 BKN070 21/16 Q1006
RJOY 200800Z 11013KT 9999 VCSH FEW030 SCT050 BKN070 23/14 Q1006
RJOY 200700Z 12012KT 9999 VCSH FEW030 SCT050 BKN070 24/14 Q1007
RJOY 200600Z 10014KT 9999 -RA FEW025 BKN050 BKN070 23/15 Q1007
RJOY 200500Z 09011KT 9999 -RA FEW025 SCT050 BKN080 24/15 Q1008
RJOY 200400Z 10012KT 9999 FEW030 SCT050 BKN090 25/15 Q1008
RJOY 200300Z 12012KT 080V150 9999 FEW030 SCT050 BKN180 26/14 Q1009
RJOY 200200Z 11013KT 9999 FEW030 BKN050 BKN/// 26/14 Q1009
RJOY 200100Z 12009KT 080V160 9999 FEW030 BKN045 BKN/// 25/14 Q1010
RJOY 200000Z 11007KT 070V170 9999 FEW030 SCT050 BKN/// 25/14 Q1011
RJOY 192300Z 11006KT 070V180 9999 FEW030 SCT050 BKN/// 24/15 Q1011
RJOY 191000Z 11009KT 080V150 9999 FEW030 BKN/// 21/13 Q1016
RJOY 190900Z 11014KT 9999 FEW030 BKN/// 22/12 Q1016
RJOY 190800Z 10013KT 9999 FEW030 SCT070 BKN/// 24/13 Q1016
RJOY 190700Z 11014KT 9999 FEW030 BKN070 BKN/// 24/12 Q1016
RJOY 190600Z 10014G24KT 070V130 9999 FEW030 SCT060 BKN070 24/13 Q1016
RJOY 190500Z 10014KT 9999 FEW030 SCT050 BKN070 24/13 Q1016
RJOY 190400Z 10015KT 9999 FEW030 BKN070 BKN/// 25/13 Q1016
RJOY 190300Z 12011G22KT 090V160 9999 FEW035 SCT050 BKN/// 26/13 Q1017
RJOY 190200Z 10015KT 9999 FEW035 SCT050 BKN/// 26/14 Q1017
RJOY 190100Z 13008KT 080V170 9999 FEW035 SCT050 BKN/// 25/13 Q1018
RJOY 190000Z 09013KT 9999 FEW030 BKN/// 24/13 Q1018
RJOY 182300Z 10011KT 040V130 9999 FEW030 SCT120 BKN/// 23/14 Q1018